createdAt,value
2023-01-20T00:01:40.445Z,93.68
2023-01-20T00:06:42.485Z,94.02
2023-01-20T00:11:44.732Z,94.42
2023-01-20T00:16:48.197Z,94.22
2023-01-20T00:21:50.205Z,94.89
2023-01-20T00:26:52.454Z,94.32
2023-01-20T00:31:55.667Z,93.93
2023-01-20T00:36:58.015Z,94.06
2023-01-20T00:42:00.415Z,94.02
2023-01-20T00:47:03.799Z,93.07
2023-01-20T00:52:06.348Z,91.72
2023-01-20T00:57:08.800Z,91.71
2023-01-20T01:02:12.569Z,90.80
2023-01-20T01:07:14.731Z,90.18
2023-01-20T01:12:16.770Z,90.53
2023-01-20T01:17:20.270Z,90.54
2023-01-20T01:22:22.670Z,90.55
2023-01-20T01:27:24.704Z,90.03
2023-01-20T01:32:28.423Z,89.52
2023-01-20T01:37:30.785Z,89.95
2023-01-20T01:42:33.060Z,90.17
2023-01-20T01:47:37.516Z,90.19
2023-01-20T01:52:42.887Z,90.44
2023-01-20T01:57:45.925Z,90.18
2023-01-20T02:02:49.730Z,90.36
2023-01-20T02:07:53.016Z,91.08
2023-01-20T02:12:55.313Z,91.42
2023-01-20T02:18:12.932Z,90.71
2023-01-20T02:23:30.505Z,91.05
2023-01-20T02:29:17.028Z,91.08
2023-01-20T02:34:28.595Z,90.96
2023-01-20T02:39:40.245Z,90.12
2023-01-20T02:44:49.829Z,90.81
2023-01-20T02:50:14.560Z,91.36
2023-01-20T02:55:22.515Z,91.74
2023-01-20T03:00:29.237Z,92.09
2023-01-20T03:05:37.316Z,92.03
2023-01-20T03:10:41.783Z,92.90
2023-01-20T03:15:54.138Z,93.40
2023-01-20T03:20:58.667Z,93.76
2023-01-20T03:26:02.701Z,93.74
2023-01-20T03:31:11.958Z,93.93
2023-01-20T03:36:16.752Z,94.23
2023-01-20T03:41:35.770Z,93.55
2023-01-20T03:46:43.460Z,93.91
2023-01-20T03:51:57.128Z,94.32
2023-01-20T03:57:04.547Z,94.62
2023-01-20T04:02:08.940Z,94.87
2023-01-20T04:07:17.689Z,94.17
2023-01-20T04:12:19.920Z,94.78
2023-01-20T04:17:26.453Z,95.68
2023-01-20T04:22:35.018Z,96.14
2023-01-20T04:27:37.181Z,96.69
2023-01-20T04:32:39.682Z,97.38
2023-01-20T04:37:43.235Z,97.25
2023-01-20T04:42:45.531Z,96.79
2023-01-20T04:47:47.488Z,97.37
2023-01-20T04:52:55.198Z,96.84
2023-01-20T04:57:57.329Z,96.57
2023-01-20T05:02:59.466Z,96.30
2023-01-20T05:08:02.677Z,96.53
2023-01-20T05:13:04.681Z,96.77
2023-01-20T05:18:06.782Z,95.85
2023-01-20T05:23:10.398Z,95.90
2023-01-20T05:28:12.613Z,95.76
2023-01-20T05:33:14.796Z,96.85
2023-01-20T05:38:18.369Z,96.14
2023-01-20T05:43:20.295Z,96.40
2023-01-20T05:48:22.359Z,96.71
2023-01-20T05:53:26.094Z,96.75
2023-01-20T05:58:28.563Z,97.12
2023-01-20T06:03:30.999Z,97.50
2023-01-20T06:08:35.008Z,97.18
2023-01-20T06:13:37.174Z,97.91
2023-01-20T06:18:39.295Z,97.70
2023-01-20T06:23:42.731Z,96.98
2023-01-20T06:28:44.898Z,96.88
2023-01-20T06:33:47.203Z,96.97
2023-01-20T06:38:50.832Z,96.33
2023-01-20T06:43:52.782Z,96.28
2023-01-20T06:48:54.844Z,96.73
2023-01-20T06:53:58.577Z,95.88
2023-01-20T06:59:00.813Z,96.00
2023-01-20T07:04:03.570Z,95.33
2023-01-20T07:09:08.944Z,95.25
2023-01-20T07:14:11.088Z,94.98
2023-01-20T07:19:13.965Z,94.26
2023-01-20T07:24:23.605Z,94.56
2023-01-20T07:29:26.921Z,94.13
2023-01-20T07:34:28.972Z,94.13
2023-01-20T07:39:32.560Z,94.01
2023-01-20T07:44:34.955Z,94.06
2023-01-20T07:49:37.305Z,93.74
2023-01-20T07:54:40.845Z,94.12
2023-01-20T07:59:42.944Z,93.59
2023-01-20T08:05:08.729Z,94.09
2023-01-20T08:10:12.335Z,93.81
2023-01-20T08:15:14.796Z,93.47
2023-01-20T08:20:19.524Z,93.19
2023-01-20T08:25:23.049Z,93.43
2023-01-20T08:30:25.620Z,93.26
2023-01-20T08:35:27.795Z,93.24
2023-01-20T08:40:33.290Z,92.40
2023-01-20T08:45:36.570Z,92.05
2023-01-20T08:50:38.416Z,91.83
2023-01-20T08:55:41.936Z,90.65
2023-01-20T09:00:44.136Z,90.33
2023-01-20T09:05:46.679Z,89.31
2023-01-20T09:10:50.144Z,88.92
2023-01-20T09:15:52.809Z,87.35
2023-01-20T09:20:54.869Z,85.98
2023-01-20T09:26:01.566Z,86.21
2023-01-20T09:31:06.795Z,84.95
2023-01-20T09:36:31.557Z,84.92
2023-01-20T09:41:37.572Z,81.42
2023-01-20T09:46:51.976Z,81.85
2023-01-20T09:52:02.570Z,81.38
2023-01-20T09:57:10.641Z,81.96
2023-01-20T10:02:19.746Z,81.26
2023-01-20T10:07:34.587Z,80.43
2023-01-20T10:12:44.204Z,80.34
2023-01-20T10:17:52.340Z,72.21
2023-01-20T10:23:01.586Z,68.74
2023-01-20T10:28:11.635Z,72.33
2023-01-20T10:33:15.283Z,74.34
2023-01-20T10:38:26.835Z,75.06
2023-01-20T10:43:31.183Z,76.21
2023-01-20T10:54:59.879Z,71.18
2023-01-20T11:00:06.423Z,70.22
2023-01-20T11:05:35.560Z,72.85
2023-01-20T11:10:37.700Z,70.64
2023-01-20T11:15:44.574Z,68.70
2023-01-20T11:20:48.333Z,62.99
2023-01-20T11:25:56.185Z,62.75
2023-01-20T11:30:59.667Z,69.26
2023-01-20T11:36:03.911Z,72.89
2023-01-20T11:41:06.427Z,74.04
2023-01-20T11:46:34.621Z,74.00
2023-01-20T11:51:45.599Z,75.27
2023-01-20T11:56:52.364Z,74.57
2023-01-20T12:01:58.960Z,73.44
2023-01-20T12:07:05.203Z,73.96
2023-01-20T12:12:15.045Z,71.83
2023-01-20T12:17:33.266Z,73.22
2023-01-20T12:22:44.989Z,74.29
2023-01-20T12:27:53.964Z,74.66
2023-01-20T12:32:58.187Z,73.81
2023-01-20T12:38:07.135Z,74.49
2023-01-20T12:43:50.503Z,74.99
2023-01-20T12:49:11.174Z,74.29
2023-01-20T12:54:54.384Z,74.58
2023-01-20T13:00:11.664Z,74.48
2023-01-20T13:06:07.551Z,75.73
2023-01-20T13:11:20.971Z,75.62
2023-01-20T13:16:32.660Z,75.09
2023-01-20T13:21:34.936Z,73.83
2023-01-20T13:26:38.275Z,75.24
2023-01-20T13:31:44.901Z,75.96
2023-01-20T13:37:21.962Z,77.79
2023-01-20T13:42:51.946Z,77.63
2023-01-20T13:48:10.364Z,78.34
2023-01-20T13:53:26.290Z,78.64
2023-01-20T13:58:31.525Z,79.30
2023-01-20T14:03:35.450Z,78.83
2023-01-20T14:08:39.440Z,78.90
2023-01-20T14:13:52.571Z,78.44
2023-01-20T14:18:57.808Z,79.71
2023-01-20T14:23:59.861Z,79.40
2023-01-20T14:34:45.249Z,80.43
2023-01-20T14:39:49.077Z,80.77
2023-01-20T14:44:55.980Z,80.78
2023-01-20T14:49:58.471Z,81.25
2023-01-20T14:55:00.584Z,82.62
2023-01-20T15:00:14.295Z,83.27
2023-01-20T15:05:25.517Z,83.74
2023-01-20T15:10:27.439Z,83.97
2023-01-20T15:15:32.292Z,84.36
2023-01-20T15:20:35.685Z,85.13
2023-01-20T15:25:37.866Z,86.46
2023-01-20T15:30:41.487Z,86.52
2023-01-20T15:35:43.747Z,87.90
2023-01-20T15:40:45.924Z,88.94
2023-01-20T15:45:49.175Z,89.49
2023-01-20T15:50:51.428Z,90.50
2023-01-20T15:55:53.687Z,91.02
2023-01-20T16:00:58.857Z,91.82
2023-01-20T16:06:00.799Z,92.73
2023-01-20T16:11:18.505Z,93.11
2023-01-20T16:16:25.454Z,93.33
2023-01-20T16:21:28.579Z,93.77
2023-01-20T16:26:34.110Z,94.17
2023-01-20T16:31:37.731Z,94.85
2023-01-20T16:36:39.913Z,95.13
2023-01-20T16:41:47.533Z,95.52
2023-01-20T16:46:51.084Z,95.81
2023-01-20T16:51:53.105Z,96.03
2023-01-20T16:56:55.189Z,96.47
2023-01-20T17:01:58.573Z,96.24
2023-01-20T17:07:00.330Z,96.43
2023-01-20T17:12:02.392Z,96.65
2023-01-20T17:17:05.534Z,96.75
2023-01-20T17:22:23.312Z,97.10
2023-01-20T17:27:25.326Z,97.83
2023-01-20T17:32:28.956Z,97.40
2023-01-20T17:37:31.206Z,98.10
2023-01-20T17:42:32.874Z,98.32
2023-01-20T17:47:36.424Z,98.43
2023-01-20T17:52:38.565Z,97.74
2023-01-20T17:57:40.736Z,98.60
2023-01-20T18:08:28.971Z,99.77
2023-01-20T18:13:30.861Z,98.00
2023-01-20T18:18:57.916Z,96.06
2023-01-20T18:24:00.846Z,94.27
2023-01-20T18:29:05.144Z,91.91
2023-01-20T18:34:11.293Z,91.30
2023-01-20T18:39:16.190Z,91.39
2023-01-20T18:44:18.952Z,90.90
2023-01-20T18:49:22.302Z,89.97
2023-01-20T18:54:24.051Z,90.05
2023-01-20T18:59:26.513Z,89.27
2023-01-20T19:04:29.950Z,90.18
2023-01-20T19:09:31.779Z,91.00
2023-01-20T19:14:34.355Z,92.47
2023-01-20T19:19:37.841Z,93.36
2023-01-20T19:24:39.631Z,92.97
2023-01-20T19:29:41.833Z,93.75
2023-01-20T19:34:45.182Z,94.11
2023-01-20T19:39:47.227Z,93.65
2023-01-20T19:44:49.085Z,93.81
2023-01-20T19:49:52.616Z,94.41
2023-01-20T19:54:54.812Z,93.93
2023-01-20T19:59:57.362Z,93.88
2023-01-20T20:05:28.938Z,92.94
2023-01-20T20:10:42.269Z,93.13
2023-01-20T20:15:47.037Z,92.63
2023-01-20T20:20:51.128Z,93.03
2023-01-20T20:25:55.450Z,92.89
2023-01-20T20:31:04.293Z,92.77
2023-01-20T20:36:09.537Z,93.08
2023-01-20T20:41:11.697Z,93.26
2023-01-20T20:46:15.820Z,93.29
2023-01-20T20:51:19.623Z,93.45
2023-01-20T20:56:23.014Z,93.15
2023-01-20T21:01:25.248Z,93.09
2023-01-20T21:06:29.635Z,93.50
2023-01-20T21:11:32.576Z,93.29
2023-01-20T21:16:35.231Z,92.98
2023-01-20T21:21:39.043Z,92.49
2023-01-20T21:26:41.399Z,93.05
2023-01-20T21:31:43.540Z,92.57
2023-01-20T21:36:46.756Z,92.24
2023-01-20T21:41:49.075Z,92.90
2023-01-20T21:46:51.313Z,92.78
2023-01-20T21:51:55.315Z,93.09
2023-01-20T21:56:57.861Z,93.31
2023-01-20T22:01:59.943Z,93.50
2023-01-20T22:07:03.151Z,93.12
2023-01-20T22:12:06.091Z,92.26
2023-01-20T22:17:09.158Z,90.89
2023-01-20T22:22:15.079Z,91.29
2023-01-20T22:27:17.444Z,92.22
2023-01-20T22:32:19.687Z,91.53
2023-01-20T22:37:22.906Z,90.85
2023-01-20T22:42:25.011Z,91.58
2023-01-20T22:47:27.157Z,91.74
2023-01-20T22:52:30.655Z,90.55
2023-01-20T22:57:33.067Z,89.71
2023-01-20T23:02:35.308Z,89.89
2023-01-20T23:07:38.790Z,90.29
2023-01-20T23:12:40.722Z,89.89
2023-01-20T23:17:42.837Z,89.79
2023-01-20T23:22:46.083Z,88.96
2023-01-20T23:27:47.784Z,89.47
2023-01-20T23:32:49.800Z,89.11
2023-01-20T23:37:53.460Z,89.67
2023-01-20T23:42:55.568Z,88.66
2023-01-20T23:47:57.319Z,89.37
2023-01-20T23:53:00.441Z,89.13
2023-01-20T23:58:03.586Z,89.24
